Pepp 21 im Turnier von 01.01.2019 bis 01.02.2019

Pepp 21s Ergebnis

Rang 570.
Turnierpunkte 926
Gespielt : Gewonnen 100 : 57
Schneider 9
Bilanz 557:512

Pepp 21s Bummerln

Zeit Gegner Ergebnis Ende
14:46:33 am 09.01.2019 fasaka 1:8 normal
14:39:40 am 09.01.2019 Baldi 7:5 normal
14:35:57 am 09.01.2019 Günter Schütter 0:9 normal
13:19:45 am 09.01.2019 SM-G900F 7:1 normal
13:17:30 am 09.01.2019 Staudenwaugger 1:7 normal
13:14:55 am 09.01.2019 Infanterie 3:7 normal
13:10:20 am 09.01.2019 Arnold 8:3 normal
11:14:42 am 09.01.2019 sun 9:1 normal
11:11:17 am 09.01.2019 LGNH 0:7 normal
10:37:15 am 09.01.2019 Robert 5:8 normal
10:33:08 am 09.01.2019 Rudd 56 0:7 normal
10:20:45 am 09.01.2019 Mario Gindl 5:8 normal
10:17:47 am 09.01.2019 Christopher Nemeth 7:0 normal
10:10:53 am 09.01.2019 Petermariannelucasfl... 7:3 normal
10:07:15 am 09.01.2019 Dietmar Igelsböck 7:0 normal
09:32:55 am 09.01.2019 ferdinand 7:6 normal
09:26:07 am 09.01.2019 luka 4:8 normal
09:21:26 am 09.01.2019 Gery 3:8 normal
09:17:35 am 09.01.2019 BINA 7:5 normal
09:13:15 am 09.01.2019 Lapi 8:5 normal
08:56:06 am 09.01.2019 günni 6:8 normal
08:23:47 am 09.01.2019 Vladan Sumarevic 8:6 normal
19:50:04 am 08.01.2019 hans 2:9 normal
19:46:14 am 08.01.2019 schnopseromi 7:6 normal
19:41:38 am 08.01.2019 domsl 8:4 normal
19:34:46 am 08.01.2019 Kloos Willy 7:4 normal
19:14:46 am 08.01.2019 Rina 6:7 normal
18:58:17 am 08.01.2019 Rudolf Ditto 5:7 normal
18:52:20 am 08.01.2019 niki 3:8 normal
18:34:51 am 08.01.2019 Erli 8:6 normal
15:53:41 am 08.01.2019 *Manuela 6:8 autocontnormal
15:49:21 am 08.01.2019 Hancock72 4:7 normal
15:10:58 am 08.01.2019 ,,,,.nexus 7 sedor 5:7 normal
13:20:05 am 08.01.2019 gerhard H: 7:4 normal
13:15:53 am 08.01.2019 Heinrich Schwi 8:0 normal
12:52:28 am 08.01.2019 Claudia 3:8 normal
12:47:12 am 08.01.2019 Reipet 7:1 normal
12:44:32 am 08.01.2019 Nobody 7:1 normal
12:31:31 am 08.01.2019 Eva 7:5 normal
12:18:52 am 08.01.2019 Eweb 9:6 normal
12:11:34 am 08.01.2019 scr4 7:0 normal
12:08:58 am 08.01.2019 maschi77 7:0 normal
11:57:04 am 08.01.2019 lukas95 6:7 normal
11:22:58 am 08.01.2019 wirtshausrunde 7:6 normal
11:17:55 am 08.01.2019 Woof4175 7:0 normal
10:44:40 am 08.01.2019 Anton Karner 2:9 normal
09:53:27 am 08.01.2019 schütziaustria 7:4 normal
09:50:04 am 08.01.2019 Mir Wurscht und tsch... 7:2 normal
09:40:38 am 08.01.2019 Monika 8:1 normal
09:24:08 am 08.01.2019 valti 2:7 normal
09:13:30 am 08.01.2019 Erich 7:2 normal
09:09:03 am 08.01.2019 Mr. Nobody 7:4 normal
08:51:07 am 08.01.2019 peter luftig 3:8 normal
08:31:31 am 08.01.2019 Robi 62 7:5 normal
13:17:49 am 07.01.2019 Daniel 6:7 normal
12:50:38 am 07.01.2019 Wolf 6:8 normal
12:44:22 am 07.01.2019 sabine43 5:7 normal
12:19:28 am 07.01.2019 DELETED 8:4 normal
12:15:20 am 07.01.2019 1 Zinkdach 7:4 normal
12:08:02 am 07.01.2019 Heidi Langmann 7:5 normal
12:02:25 am 07.01.2019 hermann fröhlich 2:8 normal
11:57:30 am 07.01.2019 aleks 7:3 normal
11:55:26 am 07.01.2019 neli 7:0 normal
11:01:59 am 07.01.2019 DELETED 8:6 normal
10:56:24 am 07.01.2019 tann 2:8 normal
10:50:30 am 07.01.2019 Geggi Strobl 4:7 normal
10:27:51 am 07.01.2019 Herbert 3:8 normal
10:11:02 am 07.01.2019 umi touch 5:7 normal
09:06:58 am 07.01.2019 Grüne Mamba 4:7 normal
18:52:19 am 06.01.2019 KaDo 8:5 normal
18:47:13 am 06.01.2019 tomgun44 8:0 normal
18:41:19 am 06.01.2019 Silvie 1:7 normal
18:19:32 am 06.01.2019 Christian Zieher 7:6 normal
13:55:30 am 06.01.2019 gchristian 7:6 normal
13:28:18 am 06.01.2019 Harry K Pax 1:7 normal
13:23:29 am 06.01.2019 Hotingirl 8:0 normal
13:16:37 am 06.01.2019 Roberto 3:7 normal
12:56:47 am 06.01.2019 Alex 8:4 normal
12:39:35 am 06.01.2019 Patrik àvagerka 4:7 normal
12:31:10 am 06.01.2019 jogl 1:7 normal
12:20:38 am 06.01.2019 M&M 0:7 normal
12:04:48 am 06.01.2019 i.n.p.e.f.e.s.s. 6:7 normal
11:46:04 am 06.01.2019 heinz 8:5 normal
11:34:00 am 06.01.2019 Helge 7:1 normal
11:16:08 am 06.01.2019 Benjamin P. 8:5 normal
11:09:08 am 06.01.2019 samsung SM-A600FN 2:9 normal
10:32:21 am 06.01.2019 ww14 7:4 normal
10:17:45 am 06.01.2019 Paulette 1:8 normal
10:09:15 am 06.01.2019 TiRoLaNd 7:3 normal
09:34:03 am 06.01.2019 vitrile 7:1 normal
09:17:34 am 06.01.2019 Hr Heinz 9:6 normal
09:07:42 am 06.01.2019 tschuti hari 8:1 normal
09:00:26 am 06.01.2019 Christoph Gföller 8:1 normal
14:56:35 am 04.01.2019 Jessica 7:4 normal
14:51:44 am 04.01.2019 Speedy 7:3 normal
14:48:59 am 04.01.2019 grande punto 2:9 normal
14:19:05 am 04.01.2019 Fred Nawratil 7:6 normal
14:13:57 am 04.01.2019 Michael 7:2 normal
08:56:37 am 04.01.2019 almi 7:4 normal
19:46:20 am 03.01.2019 Biginger 2:8 normal